createdAt,value
2018-08-30T00:00:45.321Z,13.53
2018-08-30T00:01:45.593Z,13.55
2018-08-30T00:02:45.261Z,13.5
2018-08-30T00:03:45.603Z,13.51
2018-08-30T00:04:45.298Z,13.5
2018-08-30T00:05:45.410Z,13.5
2018-08-30T00:06:45.368Z,13.49
2018-08-30T00:07:45.375Z,13.48
2018-08-30T00:08:45.351Z,13.48
2018-08-30T00:09:45.688Z,13.54
2018-08-30T00:10:45.288Z,13.49
2018-08-30T00:11:45.374Z,13.51
2018-08-30T00:12:45.438Z,13.5
2018-08-30T00:13:45.378Z,13.53
2018-08-30T00:14:45.603Z,13.5
2018-08-30T00:15:46.223Z,13.5
2018-08-30T00:16:45.501Z,13.49
2018-08-30T00:17:46.040Z,13.49
2018-08-30T00:18:45.499Z,13.45
2018-08-30T00:19:46.230Z,13.45
2018-08-30T00:20:45.351Z,13.41
2018-08-30T00:21:45.391Z,13.42
2018-08-30T00:22:45.428Z,13.39
2018-08-30T00:23:45.431Z,13.38
2018-08-30T00:24:45.378Z,13.38
2018-08-30T00:25:46.790Z,13.36
2018-08-30T00:26:45.371Z,13.37
2018-08-30T00:27:45.307Z,13.38
2018-08-30T00:28:45.456Z,13.39
2018-08-30T00:29:45.781Z,13.38
2018-08-30T00:30:45.364Z,13.38
2018-08-30T00:31:45.356Z,13.36
2018-08-30T00:32:45.879Z,13.37
2018-08-30T00:33:45.511Z,13.39
2018-08-30T00:34:45.448Z,13.37
2018-08-30T00:35:45.374Z,13.38
2018-08-30T00:36:45.640Z,13.36
2018-08-30T00:37:45.391Z,13.39
2018-08-30T00:38:45.334Z,13.38
2018-08-30T00:39:45.442Z,13.38
2018-08-30T00:40:45.385Z,13.4
2018-08-30T00:41:45.311Z,13.38
2018-08-30T00:42:45.407Z,13.36
2018-08-30T00:43:46.172Z,13.35
2018-08-30T00:44:45.734Z,13.34
2018-08-30T00:45:45.394Z,13.37
2018-08-30T00:46:45.497Z,13.37
2018-08-30T00:47:45.357Z,13.36
2018-08-30T00:48:45.382Z,13.35
2018-08-30T00:49:45.544Z,13.39
2018-08-30T00:50:45.402Z,13.35
2018-08-30T00:51:45.334Z,13.35
2018-08-30T00:52:45.520Z,13.35
2018-08-30T00:53:45.369Z,13.35
2018-08-30T00:54:45.804Z,13.33
2018-08-30T00:55:45.469Z,13.35
2018-08-30T00:56:45.435Z,13.31
2018-08-30T00:57:45.389Z,13.28
2018-08-30T00:58:45.356Z,13.28
2018-08-30T00:59:45.513Z,13.29
2018-08-30T01:00:45.427Z,13.28
2018-08-30T01:01:45.516Z,13.3
2018-08-30T01:02:45.355Z,13.29
2018-08-30T01:03:45.395Z,13.28
2018-08-30T01:04:45.364Z,13.27
2018-08-30T01:05:45.409Z,13.26
2018-08-30T01:06:45.384Z,13.25
2018-08-30T01:07:45.363Z,13.24
2018-08-30T01:08:45.432Z,13.25
2018-08-30T01:09:45.448Z,13.22
2018-08-30T01:10:45.367Z,13.21
2018-08-30T01:11:45.409Z,13.22
2018-08-30T01:12:45.431Z,13.12
2018-08-30T01:13:45.371Z,13.11
2018-08-30T01:14:45.472Z,13.07
2018-08-30T01:15:45.494Z,13.07
2018-08-30T01:16:45.388Z,13.05
2018-08-30T01:17:45.770Z,13.05
2018-08-30T01:18:45.379Z,13.13
2018-08-30T01:19:45.482Z,13.08
2018-08-30T01:20:45.709Z,13.01
2018-08-30T01:21:45.509Z,13.03
2018-08-30T01:22:45.379Z,13.01
2018-08-30T01:23:45.835Z,13.02
2018-08-30T01:24:45.461Z,13.02
2018-08-30T01:25:45.467Z,13.01
2018-08-30T01:26:45.391Z,12.99
2018-08-30T01:27:45.419Z,13
2018-08-30T01:28:45.399Z,13.02
2018-08-30T01:29:45.647Z,12.98
2018-08-30T01:30:45.432Z,13.04
2018-08-30T01:31:45.407Z,13.14
2018-08-30T01:32:45.375Z,13.23
2018-08-30T01:33:45.589Z,13.45
2018-08-30T01:34:45.533Z,13.25
2018-08-30T01:35:45.400Z,13.34
2018-08-30T01:36:45.486Z,13.28
2018-08-30T01:37:45.477Z,13.3
2018-08-30T01:38:45.396Z,13.32
2018-08-30T01:39:45.599Z,13.31
2018-08-30T01:40:45.514Z,13.4
2018-08-30T01:41:45.543Z,13.4
2018-08-30T01:42:45.451Z,13.39
2018-08-30T01:43:45.457Z,13.47
2018-08-30T01:44:45.512Z,13.46
2018-08-30T01:45:45.496Z,13.49
2018-08-30T01:46:45.424Z,13.38
2018-08-30T01:47:45.529Z,13.52
2018-08-30T01:48:45.405Z,13.39
2018-08-30T01:49:46.005Z,13.54
2018-08-30T01:50:45.526Z,13.44
2018-08-30T01:51:45.655Z,13.44
2018-08-30T01:52:45.484Z,13.43
2018-08-30T01:53:45.720Z,13.49
2018-08-30T01:54:45.477Z,13.44
2018-08-30T01:55:45.925Z,13.33
2018-08-30T01:56:45.441Z,13.4
2018-08-30T01:57:45.713Z,13.45
2018-08-30T01:58:45.786Z,13.33
2018-08-30T01:59:45.435Z,13.34
2018-08-30T02:00:45.484Z,13.34
2018-08-30T02:01:45.574Z,13.34
2018-08-30T02:02:45.465Z,13.35
2018-08-30T02:03:45.821Z,13.23
2018-08-30T02:04:45.598Z,13.28
2018-08-30T02:05:45.643Z,13.23
2018-08-30T02:06:45.576Z,13.21
2018-08-30T02:07:45.723Z,13.22
2018-08-30T02:08:45.484Z,13.11
2018-08-30T02:09:45.672Z,13.04
2018-08-30T02:10:45.940Z,13.04
2018-08-30T02:11:45.548Z,13.03
2018-08-30T02:12:45.553Z,13.09
2018-08-30T02:13:45.425Z,13.04
2018-08-30T02:14:45.536Z,13
2018-08-30T02:15:45.461Z,13.01
2018-08-30T02:16:45.618Z,12.96
2018-08-30T02:17:45.531Z,12.88
2018-08-30T02:18:45.453Z,12.87
2018-08-30T02:19:45.749Z,12.86
2018-08-30T02:20:45.615Z,12.81
2018-08-30T02:21:45.458Z,12.84
2018-08-30T02:22:45.487Z,12.83
2018-08-30T02:23:45.563Z,12.86
2018-08-30T02:24:45.478Z,12.83
2018-08-30T02:25:45.489Z,12.84
2018-08-30T02:26:45.495Z,12.85
2018-08-30T02:27:45.705Z,12.83
2018-08-30T02:28:45.447Z,12.92
2018-08-30T02:29:45.486Z,12.9
2018-08-30T02:30:45.689Z,12.9
2018-08-30T02:31:45.528Z,12.87
2018-08-30T02:32:45.566Z,12.87
2018-08-30T02:33:45.463Z,12.89
2018-08-30T02:34:45.499Z,12.87
2018-08-30T02:35:45.725Z,12.83
2018-08-30T02:36:45.581Z,12.81
2018-08-30T02:37:45.978Z,12.86
2018-08-30T02:38:45.464Z,12.85
2018-08-30T02:39:45.502Z,12.88
2018-08-30T02:40:45.529Z,12.96
2018-08-30T02:41:45.472Z,12.93
2018-08-30T02:42:45.735Z,12.97
2018-08-30T02:43:45.550Z,12.96
2018-08-30T02:44:45.596Z,12.94
2018-08-30T02:45:45.684Z,12.94
2018-08-30T02:46:45.461Z,12.96
2018-08-30T02:47:45.661Z,12.94
2018-08-30T02:48:45.506Z,12.94
2018-08-30T02:49:45.588Z,12.95
2018-08-30T02:50:45.490Z,12.92
2018-08-30T02:51:45.772Z,12.9
2018-08-30T02:52:45.535Z,12.92
2018-08-30T02:53:46.043Z,12.91
2018-08-30T02:54:45.507Z,12.94
2018-08-30T02:55:45.533Z,12.88
2018-08-30T02:56:45.780Z,12.98
2018-08-30T02:57:45.604Z,12.95
2018-08-30T02:58:45.626Z,12.97
2018-08-30T02:59:45.515Z,12.91
2018-08-30T03:00:45.527Z,12.95
2018-08-30T03:01:45.526Z,12.91
2018-08-30T03:02:45.576Z,12.93
2018-08-30T03:03:45.566Z,12.93
2018-08-30T03:04:45.557Z,12.96
2018-08-30T03:05:45.561Z,12.93
2018-08-30T03:06:45.664Z,12.93
2018-08-30T03:07:45.494Z,12.95
2018-08-30T03:08:45.734Z,12.92
2018-08-30T03:09:45.849Z,12.88
2018-08-30T03:10:45.852Z,12.94
2018-08-30T03:11:45.499Z,12.93
2018-08-30T03:12:45.798Z,12.9
2018-08-30T03:13:45.704Z,12.89
2018-08-30T03:14:46.063Z,12.86
2018-08-30T03:15:45.780Z,12.87
2018-08-30T03:16:45.792Z,12.89
2018-08-30T03:17:45.511Z,12.87
2018-08-30T03:18:45.520Z,12.87
2018-08-30T03:19:45.846Z,12.9
2018-08-30T03:20:45.584Z,12.89
2018-08-30T03:21:45.530Z,12.88
2018-08-30T03:22:45.724Z,12.9
2018-08-30T03:23:45.678Z,12.91
2018-08-30T03:24:45.598Z,12.91
2018-08-30T03:25:45.556Z,12.88
2018-08-30T03:26:45.544Z,12.88
2018-08-30T03:27:45.550Z,12.88
2018-08-30T03:28:45.532Z,12.92
2018-08-30T03:29:45.538Z,12.95
2018-08-30T03:30:46.443Z,12.93
2018-08-30T03:31:45.631Z,12.94
2018-08-30T03:32:45.617Z,12.96
2018-08-30T03:33:45.600Z,12.93
2018-08-30T03:34:45.560Z,12.92
2018-08-30T03:35:45.540Z,12.93
2018-08-30T03:36:45.576Z,12.88
2018-08-30T03:37:45.699Z,12.87
2018-08-30T03:38:45.564Z,12.88
2018-08-30T03:39:45.543Z,12.89
2018-08-30T03:40:45.564Z,12.85
2018-08-30T03:41:46.494Z,12.9
2018-08-30T03:42:45.574Z,12.92
2018-08-30T03:43:45.604Z,12.96
2018-08-30T03:44:45.580Z,13.01
2018-08-30T03:45:45.545Z,13.05
2018-08-30T03:46:45.848Z,13.02
2018-08-30T03:47:45.550Z,13.07
2018-08-30T03:48:45.586Z,13.13
2018-08-30T03:49:45.562Z,13.17
2018-08-30T03:50:45.562Z,13.24
2018-08-30T03:51:45.575Z,13.19
2018-08-30T03:52:45.614Z,13.1
2018-08-30T03:53:45.574Z,13.09
2018-08-30T03:54:45.586Z,13.15
2018-08-30T03:55:45.624Z,13.2
2018-08-30T03:56:45.565Z,13.22
2018-08-30T03:57:45.594Z,13.23
2018-08-30T03:58:45.753Z,13.23
2018-08-30T03:59:45.588Z,13.27
2018-08-30T04:00:45.566Z,13.19
2018-08-30T04:01:45.586Z,13.16
2018-08-30T04:02:45.645Z,13.14
2018-08-30T04:03:45.662Z,13.08
2018-08-30T04:04:45.754Z,13.13
2018-08-30T04:05:45.770Z,13.16
2018-08-30T04:06:45.636Z,13.11
2018-08-30T04:07:45.783Z,13.11
2018-08-30T04:08:45.607Z,13.11
2018-08-30T04:09:45.940Z,13.11
2018-08-30T04:10:45.796Z,13.09
2018-08-30T04:11:45.595Z,13.06
2018-08-30T04:12:45.629Z,13.06
2018-08-30T04:13:45.628Z,13.09
2018-08-30T04:14:45.651Z,13.06
2018-08-30T04:15:45.757Z,13.03
2018-08-30T04:16:45.672Z,12.98
2018-08-30T04:17:45.639Z,13.03
2018-08-30T04:18:45.717Z,12.96
2018-08-30T04:19:45.832Z,12.99
2018-08-30T04:20:45.622Z,12.93
2018-08-30T04:21:45.937Z,13.06
2018-08-30T04:22:45.742Z,13
2018-08-30T04:23:45.644Z,12.99
2018-08-30T04:24:45.637Z,13.01
2018-08-30T04:25:45.623Z,13.02
2018-08-30T04:26:45.683Z,13
2018-08-30T04:27:45.665Z,13.05
2018-08-30T04:28:45.612Z,13.06
2018-08-30T04:29:45.646Z,13.04
2018-08-30T04:30:45.764Z,13.04
2018-08-30T04:31:45.756Z,13.07
2018-08-30T04:32:45.622Z,13.08
2018-08-30T04:33:45.811Z,13.06
2018-08-30T04:34:45.613Z,13.01
2018-08-30T04:35:45.941Z,13.06
2018-08-30T04:36:45.645Z,13.02
2018-08-30T04:37:45.641Z,13.05
2018-08-30T04:38:45.749Z,12.99
2018-08-30T04:39:45.606Z,13.02
2018-08-30T04:40:45.780Z,12.97
2018-08-30T04:41:45.641Z,12.94
2018-08-30T04:42:46.193Z,12.96
2018-08-30T04:43:46.305Z,13.02
2018-08-30T04:44:45.652Z,12.98
2018-08-30T04:45:45.773Z,12.96
2018-08-30T04:46:45.723Z,12.99
2018-08-30T04:47:45.626Z,12.95
2018-08-30T04:48:45.707Z,12.93
2018-08-30T04:49:45.942Z,12.91
2018-08-30T04:50:45.721Z,12.89
2018-08-30T04:51:45.837Z,12.89
2018-08-30T04:52:45.796Z,12.89
2018-08-30T04:53:45.806Z,12.86
2018-08-30T04:54:46.093Z,12.84
2018-08-30T04:55:45.732Z,12.84
2018-08-30T04:56:46.655Z,12.86
2018-08-30T04:57:45.888Z,12.82
2018-08-30T04:58:45.793Z,12.82
2018-08-30T04:59:45.976Z,12.83
2018-08-30T05:00:45.654Z,12.81
2018-08-30T05:01:46.546Z,12.83
2018-08-30T05:02:45.662Z,12.87
2018-08-30T05:03:45.665Z,12.85
2018-08-30T05:04:45.682Z,12.92
2018-08-30T05:05:45.647Z,12.91
2018-08-30T05:06:45.717Z,12.87
2018-08-30T05:07:45.653Z,12.88
2018-08-30T05:08:45.699Z,12.88
2018-08-30T05:09:45.635Z,12.79
2018-08-30T05:10:45.627Z,12.8
2018-08-30T05:11:45.752Z,12.79
2018-08-30T05:12:45.680Z,12.79
2018-08-30T05:13:45.648Z,12.8
2018-08-30T05:14:45.675Z,12.78
2018-08-30T05:15:45.712Z,12.79
2018-08-30T05:16:45.682Z,12.82
2018-08-30T05:17:45.707Z,12.81
2018-08-30T05:18:45.634Z,12.8
2018-08-30T05:19:45.710Z,12.82
2018-08-30T05:20:45.663Z,12.78
2018-08-30T05:21:45.669Z,12.77
2018-08-30T05:22:45.833Z,12.77
2018-08-30T05:23:45.756Z,12.77
2018-08-30T05:24:45.668Z,12.75
2018-08-30T05:25:45.784Z,12.77
2018-08-30T05:26:45.982Z,12.77
2018-08-30T05:27:45.691Z,12.79
2018-08-30T05:28:45.688Z,12.8
2018-08-30T05:29:46.269Z,12.8
2018-08-30T05:30:46.111Z,12.81
2018-08-30T05:31:45.750Z,12.8
2018-08-30T05:32:45.705Z,12.8
2018-08-30T05:33:46.345Z,12.78
2018-08-30T05:34:45.862Z,12.82
2018-08-30T05:35:46.521Z,12.82
2018-08-30T05:36:45.719Z,12.86
2018-08-30T05:37:46.239Z,12.85
2018-08-30T05:38:45.872Z,12.82
2018-08-30T05:39:46.185Z,12.85
2018-08-30T05:40:45.775Z,12.88
2018-08-30T05:41:45.673Z,12.89
2018-08-30T05:42:45.692Z,12.9
2018-08-30T05:43:45.698Z,12.88
2018-08-30T05:44:46.745Z,12.82
2018-08-30T05:45:46.162Z,12.87
2018-08-30T05:46:45.763Z,12.88
2018-08-30T05:47:45.869Z,12.8
2018-08-30T05:48:45.737Z,12.79
2018-08-30T05:49:45.790Z,12.78
2018-08-30T05:50:46.199Z,12.78
2018-08-30T05:51:45.949Z,12.77
2018-08-30T05:52:45.753Z,12.79
2018-08-30T05:53:45.905Z,12.75
2018-08-30T05:54:45.706Z,12.72
2018-08-30T05:55:45.991Z,12.72
2018-08-30T05:56:46.507Z,12.7
2018-08-30T05:57:45.836Z,12.63
2018-08-30T05:58:45.961Z,12.54
2018-08-30T05:59:45.809Z,12.54
2018-08-30T06:00:45.710Z,12.56
2018-08-30T06:01:45.833Z,12.56
2018-08-30T06:02:45.732Z,12.5
2018-08-30T06:03:45.800Z,12.5
2018-08-30T06:04:46.152Z,12.48
2018-08-30T06:05:45.880Z,12.39
2018-08-30T06:06:45.729Z,12.36
2018-08-30T06:07:45.803Z,12.38
2018-08-30T06:08:46.094Z,12.26
2018-08-30T06:09:45.772Z,12.03
2018-08-30T06:10:46.059Z,12.01
2018-08-30T06:11:45.733Z,12.01
2018-08-30T06:12:46.082Z,12.01
2018-08-30T06:13:45.884Z,12.03
2018-08-30T06:14:46.234Z,12.02
2018-08-30T06:15:45.792Z,12
2018-08-30T06:16:45.725Z,11.92
2018-08-30T06:17:45.732Z,11.83
2018-08-30T06:18:45.814Z,11.79
2018-08-30T06:19:45.826Z,11.8
2018-08-30T06:20:45.824Z,11.72
2018-08-30T06:21:46.047Z,11.74
2018-08-30T06:22:45.768Z,11.64
2018-08-30T06:23:45.910Z,11.66
2018-08-30T06:24:45.783Z,11.68
2018-08-30T06:25:45.765Z,11.58
2018-08-30T06:26:46.211Z,11.53
2018-08-30T06:27:45.757Z,11.56
2018-08-30T06:28:45.791Z,11.61
2018-08-30T06:29:45.775Z,11.55
2018-08-30T06:30:45.832Z,11.58
2018-08-30T06:31:45.788Z,11.55
2018-08-30T06:32:46.143Z,11.53
2018-08-30T06:33:45.800Z,11.54
2018-08-30T06:34:47.008Z,11.58
2018-08-30T06:35:45.823Z,11.56
2018-08-30T06:36:45.801Z,11.47
2018-08-30T06:37:45.778Z,11.41
2018-08-30T06:38:47.014Z,11.43
2018-08-30T06:39:45.785Z,11.45
2018-08-30T06:40:45.786Z,11.36
2018-08-30T06:41:45.767Z,11.39
2018-08-30T06:42:45.820Z,11.36
2018-08-30T06:43:45.785Z,11.41
2018-08-30T06:44:45.800Z,11.36
2018-08-30T06:45:46.853Z,11.4
2018-08-30T06:46:45.796Z,11.43
2018-08-30T06:47:45.866Z,11.37
2018-08-30T06:48:45.926Z,11.37
2018-08-30T06:49:45.787Z,11.36
2018-08-30T06:50:46.040Z,11.38
2018-08-30T06:51:45.870Z,11.32
2018-08-30T06:52:45.890Z,11.38
2018-08-30T06:53:46.101Z,11.37
2018-08-30T06:54:45.846Z,11.32
2018-08-30T06:55:46.107Z,11.27
2018-08-30T06:56:45.799Z,11.27
2018-08-30T06:57:46.347Z,11.34
2018-08-30T06:58:45.795Z,11.32
2018-08-30T06:59:45.795Z,11.31
2018-08-30T07:00:45.831Z,11.31
2018-08-30T07:01:45.874Z,11.32
2018-08-30T07:02:46.084Z,11.31
2018-08-30T07:03:45.856Z,11.29
2018-08-30T07:04:46.650Z,11.34
2018-08-30T07:05:45.814Z,11.31
2018-08-30T07:06:46.079Z,11.32
2018-08-30T07:07:45.901Z,11.37
2018-08-30T07:08:45.829Z,11.38
2018-08-30T07:09:45.918Z,11.36
2018-08-30T07:10:45.936Z,11.26
2018-08-30T07:11:45.849Z,11.19
2018-08-30T07:12:45.833Z,11.17
2018-08-30T07:13:45.859Z,11.21
2018-08-30T07:14:47.097Z,11.2
2018-08-30T07:15:46.193Z,11.16
2018-08-30T07:16:45.830Z,11.12
2018-08-30T07:17:45.837Z,11.16
2018-08-30T07:18:46.172Z,11.07
2018-08-30T07:19:46.169Z,11.15
2018-08-30T07:20:45.881Z,11.25
2018-08-30T07:21:45.894Z,11.21
2018-08-30T07:22:46.080Z,11.2
2018-08-30T07:23:45.893Z,11.25
2018-08-30T07:24:45.850Z,11.27
2018-08-30T07:25:46.072Z,11.18
2018-08-30T07:26:45.861Z,11.1
2018-08-30T07:27:46.425Z,11.21
2018-08-30T07:28:45.965Z,11.27
2018-08-30T07:29:46.132Z,11.3
2018-08-30T07:30:46.061Z,11.35
2018-08-30T07:31:45.882Z,11.15
2018-08-30T07:32:46.043Z,11.08
2018-08-30T07:33:45.899Z,11.12
2018-08-30T07:34:47.454Z,11.22
2018-08-30T07:35:45.874Z,11.22
2018-08-30T07:36:45.966Z,11.21
2018-08-30T07:37:46.212Z,11.14
2018-08-30T07:38:45.842Z,11.14
2018-08-30T07:39:45.870Z,10.96
2018-08-30T07:40:45.888Z,11.09
2018-08-30T07:41:45.863Z,11.03
2018-08-30T07:42:45.876Z,11.1
2018-08-30T07:43:45.972Z,11.07
2018-08-30T07:44:45.857Z,11.01
2018-08-30T07:45:45.888Z,11.03
2018-08-30T07:46:45.913Z,11.05
2018-08-30T07:47:45.880Z,11.01
2018-08-30T07:48:45.897Z,11.01
2018-08-30T07:49:45.904Z,11.08
2018-08-30T07:50:46.250Z,11.02
2018-08-30T07:51:45.925Z,10.97
2018-08-30T07:52:46.063Z,10.9
2018-08-30T07:53:45.902Z,10.84
2018-08-30T07:54:46.004Z,10.9
2018-08-30T07:55:45.973Z,10.91
2018-08-30T07:56:45.847Z,10.95
2018-08-30T07:57:45.913Z,10.94
2018-08-30T07:58:45.870Z,11.01
2018-08-30T07:59:45.867Z,11
2018-08-30T08:00:45.846Z,10.9
2018-08-30T08:01:46.034Z,10.91
2018-08-30T08:02:46.257Z,10.97
2018-08-30T08:03:45.918Z,10.98
2018-08-30T08:04:45.852Z,11.01
2018-08-30T08:05:45.993Z,10.91
2018-08-30T08:06:46.255Z,10.91
2018-08-30T08:07:45.916Z,10.92
2018-08-30T08:08:45.879Z,10.8
2018-08-30T08:09:45.882Z,10.85
2018-08-30T08:10:45.892Z,10.83
2018-08-30T08:11:46.340Z,10.82
2018-08-30T08:12:46.710Z,10.81
2018-08-30T08:13:46.471Z,10.87
2018-08-30T08:14:46.179Z,10.89
2018-08-30T08:15:45.903Z,10.94
2018-08-30T08:16:45.901Z,10.89
2018-08-30T08:17:46.487Z,10.89
2018-08-30T08:18:45.912Z,10.9
2018-08-30T08:19:46.000Z,10.88
2018-08-30T08:20:46.006Z,10.85
2018-08-30T08:21:46.053Z,10.85
2018-08-30T08:22:45.920Z,10.8
2018-08-30T08:23:45.933Z,10.74
2018-08-30T08:24:46.296Z,10.78
2018-08-30T08:25:46.087Z,10.86
2018-08-30T08:26:45.911Z,10.9
2018-08-30T08:27:45.995Z,10.87
2018-08-30T08:28:46.535Z,10.87
2018-08-30T08:29:45.905Z,10.91
2018-08-30T08:30:46.079Z,10.98
2018-08-30T08:31:46.014Z,10.95
2018-08-30T08:32:46.092Z,10.97
2018-08-30T08:33:46.151Z,10.94
2018-08-30T08:34:46.033Z,10.95
2018-08-30T08:35:46.092Z,10.89
2018-08-30T08:36:46.109Z,10.92
2018-08-30T08:37:46.106Z,10.91
2018-08-30T08:38:46.312Z,10.87
2018-08-30T08:39:45.986Z,10.92
2018-08-30T08:40:46.063Z,10.94
2018-08-30T08:41:45.971Z,10.89
2018-08-30T08:42:46.255Z,10.81
2018-08-30T08:43:45.962Z,10.89
2018-08-30T08:44:46.123Z,10.88
2018-08-30T08:45:46.171Z,10.81
2018-08-30T08:46:46.074Z,10.7
2018-08-30T08:47:46.598Z,10.7
2018-08-30T08:48:45.979Z,10.63
2018-08-30T08:49:46.080Z,10.71
2018-08-30T08:50:45.961Z,10.6
2018-08-30T08:51:46.063Z,10.69
2018-08-30T08:52:46.117Z,10.83
2018-08-30T08:53:47.484Z,10.77
2018-08-30T08:54:46.123Z,10.83
2018-08-30T08:55:46.081Z,10.81
2018-08-30T08:56:45.923Z,10.75
2018-08-30T08:57:46.253Z,10.51
2018-08-30T08:58:46.594Z,10.54
2018-08-30T08:59:45.943Z,10.59
2018-08-30T09:00:46.084Z,10.58
2018-08-30T09:01:46.095Z,10.62
2018-08-30T09:02:46.404Z,10.62
2018-08-30T09:03:46.363Z,10.58
2018-08-30T09:04:45.993Z,10.7
2018-08-30T09:05:46.041Z,10.53
2018-08-30T09:06:45.947Z,10.49
2018-08-30T09:07:46.997Z,10.51
2018-08-30T09:08:46.037Z,10.43
2018-08-30T09:09:46.041Z,10.56
2018-08-30T09:10:45.959Z,10.49
2018-08-30T09:11:46.021Z,10.59
2018-08-30T09:12:46.039Z,10.62
2018-08-30T09:13:46.074Z,10.62
2018-08-30T09:14:46.012Z,10.6
2018-08-30T09:15:45.977Z,10.47
2018-08-30T09:16:46.023Z,10.65
2018-08-30T09:17:45.999Z,10.33
2018-08-30T09:18:46.060Z,10.32
2018-08-30T09:19:46.015Z,10.29
2018-08-30T09:20:46.043Z,10.43
2018-08-30T09:21:46.072Z,10.48
2018-08-30T09:22:46.033Z,10.44
2018-08-30T09:23:46.052Z,10.34
2018-08-30T09:24:46.221Z,10.24
2018-08-30T09:25:46.016Z,10.21
2018-08-30T09:26:46.942Z,10.18
2018-08-30T09:27:46.239Z,10.22
2018-08-30T09:28:45.963Z,10.2
2018-08-30T09:29:45.999Z,10.16
2018-08-30T09:30:46.073Z,10.23
2018-08-30T09:31:46.078Z,10.23
2018-08-30T09:32:46.208Z,10.08
2018-08-30T09:33:46.626Z,10.12
2018-08-30T09:34:46.111Z,10.18
2018-08-30T09:35:46.104Z,10.17
2018-08-30T09:36:45.972Z,10.19
2018-08-30T09:37:46.145Z,10.16
2018-08-30T09:38:46.125Z,10.12
2018-08-30T09:39:46.401Z,10.14
2018-08-30T09:40:46.312Z,10.11
2018-08-30T09:41:46.054Z,10.13
2018-08-30T09:42:46.114Z,10.25
2018-08-30T09:43:46.371Z,10.25
2018-08-30T09:44:46.270Z,10.21
2018-08-30T09:45:46.247Z,10.24
2018-08-30T09:46:46.122Z,10.26
2018-08-30T09:47:46.263Z,10.25
2018-08-30T09:48:46.266Z,10.24
2018-08-30T09:49:47.504Z,10.31
2018-08-30T09:50:45.989Z,10.35
2018-08-30T09:51:46.214Z,10.35
2018-08-30T09:52:46.166Z,10.2
2018-08-30T09:53:46.042Z,10.26
2018-08-30T09:54:46.134Z,10.29
2018-08-30T09:55:46.913Z,10.34
2018-08-30T09:56:46.890Z,10.33
2018-08-30T09:57:46.727Z,10.35
2018-08-30T09:58:46.136Z,10.34
2018-08-30T09:59:47.956Z,10.37
2018-08-30T10:00:46.395Z,10.31
2018-08-30T10:01:46.133Z,10.42
2018-08-30T10:02:46.142Z,10.4
2018-08-30T10:03:46.421Z,10.42
2018-08-30T10:04:46.887Z,10.39
2018-08-30T10:05:46.403Z,10.47
2018-08-30T10:06:46.772Z,10.49
2018-08-30T10:07:48.738Z,10.45
2018-08-30T10:08:46.018Z,10.38
2018-08-30T10:09:46.158Z,10.41
2018-08-30T10:10:46.438Z,10.39
2018-08-30T10:11:46.321Z,10.36
2018-08-30T10:12:46.173Z,10.38
2018-08-30T10:13:46.072Z,10.52
2018-08-30T10:14:46.079Z,10.45
2018-08-30T10:15:46.524Z,10.54
2018-08-30T10:16:46.002Z,10.51
2018-08-30T10:17:46.017Z,10.44
2018-08-30T10:18:46.059Z,10.36
2018-08-30T10:19:46.043Z,10.36
2018-08-30T10:20:46.364Z,10.38
2018-08-30T10:21:46.324Z,10.38
2018-08-30T10:22:46.214Z,10.39
2018-08-30T10:23:46.041Z,10.34
2018-08-30T10:24:46.123Z,10.33
2018-08-30T10:25:46.341Z,10.42
2018-08-30T10:26:46.144Z,10.47
2018-08-30T10:27:46.025Z,10.34
2018-08-30T10:28:46.066Z,10.36
2018-08-30T10:29:46.063Z,10.35
2018-08-30T10:30:46.047Z,10.29
2018-08-30T10:31:46.063Z,10.39
2018-08-30T10:32:46.084Z,10.41
2018-08-30T10:33:46.051Z,10.45
2018-08-30T10:34:46.054Z,10.37
2018-08-30T10:35:46.048Z,10.46
2018-08-30T10:36:46.085Z,10.4
2018-08-30T10:37:46.127Z,10.4
2018-08-30T10:38:46.067Z,10.37
2018-08-30T10:39:46.085Z,10.43
2018-08-30T10:40:46.069Z,10.47
2018-08-30T10:41:46.167Z,10.38
2018-08-30T10:42:46.312Z,10.43
2018-08-30T10:43:46.151Z,10.33
2018-08-30T10:44:46.155Z,10.31
2018-08-30T10:45:47.345Z,10.34
2018-08-30T10:46:46.398Z,10.26
2018-08-30T10:47:46.448Z,10.28
2018-08-30T10:48:46.291Z,10.25
2018-08-30T10:49:46.632Z,10.33
2018-08-30T10:50:46.363Z,10.33
2018-08-30T10:51:46.517Z,10.41
2018-08-30T10:52:46.342Z,10.27
2018-08-30T10:53:46.270Z,10.32
2018-08-30T10:54:46.228Z,10.3
2018-08-30T10:55:46.499Z,10.32
2018-08-30T10:56:46.135Z,10.31
2018-08-30T10:57:46.265Z,10.37
2018-08-30T10:58:46.413Z,10.37
2018-08-30T10:59:46.294Z,10.44
2018-08-30T11:00:46.131Z,10.4
2018-08-30T11:01:46.622Z,10.39
2018-08-30T11:02:46.213Z,10.38
2018-08-30T11:03:46.993Z,10.38
2018-08-30T11:04:46.122Z,10.4
2018-08-30T11:05:46.204Z,10.44
2018-08-30T11:06:46.106Z,10.39
2018-08-30T11:07:46.354Z,10.42
2018-08-30T11:08:46.274Z,10.38
2018-08-30T11:09:46.265Z,10.33
2018-08-30T11:10:46.254Z,10.33
2018-08-30T11:11:46.220Z,10.44
2018-08-30T11:12:46.750Z,10.42
2018-08-30T11:13:46.451Z,10.29
2018-08-30T11:14:46.077Z,10.23
2018-08-30T11:15:46.220Z,10.26
2018-08-30T11:16:46.199Z,10.35
2018-08-30T11:17:46.336Z,10.28
2018-08-30T11:18:46.603Z,10.18
2018-08-30T11:19:46.213Z,10.33
2018-08-30T11:20:46.132Z,10.29
2018-08-30T11:21:46.106Z,10.18
2018-08-30T11:22:46.289Z,10.23
2018-08-30T11:23:46.295Z,10.25
2018-08-30T11:24:46.164Z,10.33
2018-08-30T11:25:46.758Z,10.35
2018-08-30T11:26:46.438Z,10.39
2018-08-30T11:27:46.231Z,10.44
2018-08-30T11:28:46.407Z,10.33
2018-08-30T11:29:46.389Z,10.14
2018-08-30T11:30:46.920Z,10.21
2018-08-30T11:31:46.257Z,10.39
2018-08-30T11:32:46.183Z,10.45
2018-08-30T11:33:46.782Z,10.27
2018-08-30T11:34:46.798Z,10.25
2018-08-30T11:35:46.131Z,10.31
2018-08-30T11:36:46.242Z,10.3
2018-08-30T11:37:47.092Z,10.27
2018-08-30T11:38:46.288Z,10.35
2018-08-30T11:39:46.525Z,10.33
2018-08-30T11:40:46.477Z,10.16
2018-08-30T11:41:48.704Z,10.25
2018-08-30T11:42:46.109Z,10.3
2018-08-30T11:43:46.352Z,10.25
2018-08-30T11:44:46.191Z,10.3
2018-08-30T11:45:46.171Z,10.3
2018-08-30T11:46:46.215Z,10.37
2018-08-30T11:47:46.246Z,10.39
2018-08-30T11:48:46.375Z,10.32
2018-08-30T11:49:46.201Z,10.28
2018-08-30T11:50:46.298Z,10.27
2018-08-30T11:51:46.274Z,10.32
2018-08-30T11:52:47.273Z,10.36
2018-08-30T11:53:46.249Z,10.31
2018-08-30T11:54:46.373Z,10.43
2018-08-30T11:56:46.208Z,10.38
2018-08-30T11:57:46.350Z,10.33
2018-08-30T11:58:46.128Z,10.34
2018-08-30T11:59:46.185Z,10.37
2018-08-30T12:00:46.551Z,10.26
2018-08-30T12:01:46.237Z,10.26
2018-08-30T12:02:46.271Z,10.26
2018-08-30T12:03:46.330Z,10.15
2018-08-30T12:04:46.375Z,10.22
2018-08-30T12:05:46.193Z,10.12
2018-08-30T12:06:46.748Z,10.2
2018-08-30T12:07:46.424Z,10.27
2018-08-30T12:08:46.359Z,10.24
2018-08-30T12:09:46.210Z,10.27
2018-08-30T12:10:47.517Z,10.31
2018-08-30T12:11:47.511Z,10.37
2018-08-30T12:12:46.386Z,10.43
2018-08-30T12:13:46.229Z,10.29
2018-08-30T12:14:46.205Z,10.19
2018-08-30T12:15:46.231Z,10.24
2018-08-30T12:16:46.243Z,10.23
2018-08-30T12:17:46.228Z,10.19
2018-08-30T12:18:46.904Z,10.15
2018-08-30T12:19:46.356Z,9.94
2018-08-30T12:20:47.894Z,9.98
2018-08-30T12:21:46.234Z,10.04
2018-08-30T12:22:46.793Z,10.15
2018-08-30T12:23:46.330Z,10.15
2018-08-30T12:24:46.301Z,10.14
2018-08-30T12:25:46.343Z,10.24
2018-08-30T12:26:46.293Z,9.85
2018-08-30T12:27:46.364Z,9.85
2018-08-30T12:28:48.050Z,9.86
2018-08-30T12:29:46.402Z,9.93
2018-08-30T12:30:46.518Z,9.93
2018-08-30T12:31:47.004Z,9.93
2018-08-30T12:32:46.747Z,9.93
2018-08-30T12:33:46.873Z,9.94
2018-08-30T12:34:46.981Z,9.94
2018-08-30T12:35:48.256Z,9.93
2018-08-30T12:36:46.914Z,9.95
2018-08-30T12:37:46.465Z,10
2018-08-30T12:38:46.557Z,9.93
2018-08-30T12:39:47.667Z,9.89
2018-08-30T12:40:46.929Z,9.91
2018-08-30T12:41:46.540Z,9.94
2018-08-30T12:42:47.025Z,9.85
2018-08-30T12:43:47.036Z,9.9
2018-08-30T12:44:46.820Z,9.85
2018-08-30T12:45:47.255Z,9.95
2018-08-30T12:46:46.515Z,9.92
2018-08-30T12:47:46.732Z,9.87
2018-08-30T12:48:46.806Z,9.91
2018-08-30T12:49:46.741Z,9.89
2018-08-30T12:50:48.200Z,9.92
2018-08-30T12:51:48.021Z,9.86
2018-08-30T12:52:48.004Z,9.96
2018-08-30T12:53:48.029Z,9.96
2018-08-30T12:54:47.044Z,10
2018-08-30T12:55:47.984Z,10.01
2018-08-30T12:56:47.950Z,10.02
2018-08-30T12:57:48.024Z,10.02